Time;durP1;ratioP1;P1;durP2;ratioP2;P2;SDS_P1;SDS_P2;PMS_P1;PMS_P2;Temp;Humidity;BMP_temperature;BMP_pressure;BME280_temperature;BME280_humidity;BME280_pressure;Samples;Min_cycle;Max_cycle;Signal;HPM_P1;HPM_P2
2021/12/09 00:01:02;;;;;;;36.58;20.95;;;2.50;99.90;;;;;;2098967;28;20423;-72
2021/12/09 00:02:03;;;;;;;37.08;20.92;;;2.50;99.90;;;;;;2093617;28;20016;-71
2021/12/09 00:03:07;;;;;;;37.53;21.17;;;2.40;99.90;;;;;;2083121;28;20079;-72
2021/12/09 00:04:12;;;;;;;35.90;21.52;;;2.40;99.90;;;;;;2085788;28;20025;-71
2021/12/09 00:05:16;;;;;;;36.80;21.58;;;2.40;99.90;;;;;;2092572;28;20128;-73
2021/12/09 00:06:21;;;;;;;37.30;21.17;;;2.40;99.90;;;;;;2098985;28;20031;-71
2021/12/09 00:07:24;;;;;;;35.97;20.45;;;2.40;99.90;;;;;;2098539;28;20226;-72
2021/12/09 00:08:29;;;;;;;35.97;21.05;;;2.40;99.90;;;;;;2094593;28;20440;-72
2021/12/09 00:09:31;;;;;;;38.83;21.98;;;2.40;99.90;;;;;;2074152;28;20172;-73
2021/12/09 00:10:33;;;;;;;36.67;21.00;;;2.40;99.90;;;;;;2081246;28;20041;-73
2021/12/09 00:11:42;;;;;;;37.05;20.80;;;2.40;99.90;;;;;;2081642;28;20577;-71
2021/12/09 00:12:43;;;;;;;34.85;20.13;;;2.40;99.90;;;;;;2074399;28;20034;-70
2021/12/09 00:13:44;;;;;;;38.45;21.08;;;2.40;99.90;;;;;;2081417;28;20033;-71
2021/12/09 00:14:45;;;;;;;38.05;21.30;;;2.40;99.90;;;;;;2081396;28;20163;-71
2021/12/09 00:15:46;;;;;;;36.58;21.33;;;2.40;99.90;;;;;;2081403;28;20084;-72
2021/12/09 00:16:50;;;;;;;39.15;21.48;;;2.40;99.90;;;;;;2081573;28;20080;-72
2021/12/09 00:17:51;;;;;;;37.90;21.23;;;2.40;99.90;;;;;;2091091;28;20108;-74
2021/12/09 00:18:51;;;;;;;37.08;21.63;;;2.40;99.90;;;;;;2081320;28;20032;-72
2021/12/09 00:19:52;;;;;;;37.42;21.33;;;2.40;99.90;;;;;;2081503;28;20096;-73
2021/12/09 00:20:53;;;;;;;36.58;21.08;;;2.40;99.90;;;;;;2081292;28;20079;-72
2021/12/09 00:21:56;;;;;;;35.95;19.92;;;2.40;99.90;;;;;;2072808;28;20030;-72
2021/12/09 00:22:57;;;;;;;35.58;20.05;;;2.40;99.90;;;;;;2089960;28;20056;-72
2021/12/09 00:23:57;;;;;;;37.25;20.48;;;2.40;99.90;;;;;;2090254;28;20473;-73
2021/12/09 00:24:58;;;;;;;37.38;21.15;;;2.30;99.90;;;;;;2081026;28;20037;-73
2021/12/09 00:25:59;;;;;;;38.42;22.25;;;2.40;99.90;;;;;;2082495;28;20041;-73
2021/12/09 00:26:59;;;;;;;41.47;22.80;;;2.40;99.90;;;;;;2090802;28;20025;-73
2021/12/09 00:28:00;;;;;;;37.65;21.10;;;2.40;99.90;;;;;;2081715;28;20144;-74
2021/12/09 00:29:01;;;;;;;39.38;22.13;;;2.30;99.90;;;;;;2081421;28;20037;-73
2021/12/09 00:30:03;;;;;;;45.65;23.67;;;2.40;99.90;;;;;;2082046;28;20032;-71
2021/12/09 00:31:04;;;;;;;41.85;23.02;;;2.30;99.90;;;;;;2089716;28;20025;-73
2021/12/09 00:32:05;;;;;;;41.92;23.30;;;2.40;99.90;;;;;;2090070;28;20068;-73
2021/12/09 00:33:07;;;;;;;44.65;24.95;;;2.40;99.90;;;;;;2090043;28;20051;-72
2021/12/09 00:34:08;;;;;;;45.15;24.10;;;2.40;99.90;;;;;;2089664;28;20058;-73
2021/12/09 00:35:14;;;;;;;45.45;24.08;;;2.40;99.90;;;;;;2072909;28;20464;-73
2021/12/09 00:36:26;;;;;;;47.55;25.58;;;2.40;99.90;;;;;;2084313;28;20025;-72
2021/12/09 00:37:37;;;;;;;49.97;25.98;;;2.40;99.90;;;;;;2092264;28;20048;-73
2021/12/09 00:38:40;;;;;;;;;;;2.30;99.90;;;;;;2087611;28;20025;-73
2021/12/09 00:39:42;;;;;;;56.13;28.13;;;2.30;99.90;;;;;;2091220;28;20404;-72
2021/12/09 00:40:42;;;;;;;58.30;29.30;;;2.30;99.90;;;;;;2082000;28;20121;-72
2021/12/09 00:41:43;;;;;;;57.35;29.05;;;2.30;99.90;;;;;;2090695;28;20028;-72
2021/12/09 00:42:44;;;;;;;63.78;30.83;;;2.30;99.90;;;;;;2090805;28;20033;-72
2021/12/09 00:43:45;;;;;;;56.85;29.35;;;2.30;99.90;;;;;;2082721;28;20174;-71
2021/12/09 00:44:46;;;;;;;62.25;30.85;;;2.30;99.90;;;;;;2090924;28;20589;-72
2021/12/09 00:45:47;;;;;;;61.80;30.27;;;2.20;99.90;;;;;;2098530;28;20175;-72
2021/12/09 00:46:48;;;;;;;65.22;32.10;;;2.20;99.90;;;;;;2098718;28;20035;-73
2021/12/09 00:47:49;;;;;;;59.88;30.77;;;2.30;99.90;;;;;;2098751;28;20450;-72
2021/12/09 00:48:50;;;;;;;61.08;30.65;;;2.30;99.90;;;;;;2099557;28;20031;-73
2021/12/09 00:49:55;;;;;;;66.15;32.25;;;2.20;99.90;;;;;;2099374;28;20047;-73
2021/12/09 00:51:00;;;;;;;59.88;30.85;;;2.20;99.90;;;;;;2098935;28;20039;-72
2021/12/09 00:52:02;;;;;;;60.40;30.35;;;2.20;99.90;;;;;;2098656;28;20021;-73
2021/12/09 00:53:03;;;;;;;60.90;31.17;;;2.20;99.90;;;;;;2098223;28;20020;-72
2021/12/09 00:54:04;;;;;;;61.35;30.15;;;2.10;99.90;;;;;;2090754;28;20052;-71
2021/12/09 00:55:06;;;;;;;57.80;30.00;;;2.10;99.90;;;;;;2091941;28;20021;-72
2021/12/09 00:56:09;;;;;;;61.28;30.60;;;2.10;99.90;;;;;;2092956;28;20037;-72
2021/12/09 00:57:11;;;;;;;62.97;31.25;;;2.10;99.90;;;;;;2093985;28;20033;-72
2021/12/09 00:58:12;;;;;;;63.03;31.45;;;2.10;99.90;;;;;;2090957;28;20021;-73
2021/12/09 00:59:13;;;;;;;62.92;31.50;;;2.10;99.90;;;;;;2099100;28;20108;-71
2021/12/09 01:00:18;;;;;;;68.13;33.03;;;2.10;99.90;;;;;;2090243;28;20131;-74
2021/12/09 01:01:19;;;;;;;68.82;33.10;;;2.10;99.90;;;;;;2090555;28;20025;-73
2021/12/09 01:02:20;;;;;;;65.57;32.17;;;2.10;99.90;;;;;;2097592;28;20040;-74
2021/12/09 01:03:21;;;;;;;66.28;33.25;;;2.10;99.90;;;;;;2097752;28;20437;-73
2021/12/09 01:04:22;;;;;;;67.30;33.80;;;2.10;99.90;;;;;;2089508;28;20036;-73
2021/12/09 01:05:22;;;;;;;65.72;33.80;;;2.10;99.90;;;;;;2097510;28;20587;-72
2021/12/09 01:06:25;;;;;;;66.75;32.55;;;2.10;99.90;;;;;;2088548;28;20024;-72
2021/12/09 01:07:26;;;;;;;65.47;32.78;;;2.10;99.90;;;;;;2096586;28;20044;-72
2021/12/09 01:08:27;;;;;;;63.50;32.25;;;2.10;99.90;;;;;;2097611;28;20131;-70
2021/12/09 01:09:30;;;;;;;67.57;33.67;;;2.20;99.90;;;;;;2096669;28;20079;-71
2021/12/09 01:10:31;;;;;;;69.30;34.78;;;2.20;99.90;;;;;;2088449;28;20064;-72
2021/12/09 01:11:32;;;;;;;72.10;35.33;;;2.20;99.90;;;;;;2096541;28;20036;-72
2021/12/09 01:12:32;;;;;;;70.75;34.47;;;2.20;99.90;;;;;;2097404;28;20497;-73
2021/12/09 01:13:34;;;;;;;70.05;34.50;;;2.20;99.90;;;;;;2096481;28;20044;-73
2021/12/09 01:14:37;;;;;;;72.20;35.85;;;2.20;99.90;;;;;;2096658;28;20599;-72
2021/12/09 01:15:38;;;;;;;73.90;36.25;;;2.20;99.90;;;;;;2088354;28;20033;-71
2021/12/09 01:16:40;;;;;;;72.20;34.60;;;2.20;99.90;;;;;;2088368;28;20915;-72
2021/12/09 01:17:41;;;;;;;69.45;34.00;;;2.20;99.90;;;;;;2096600;28;20120;-72
2021/12/09 01:18:42;;;;;;;69.95;33.97;;;2.20;99.90;;;;;;2096554;28;20039;-73
2021/12/09 01:19:43;;;;;;;70.18;34.50;;;2.20;99.90;;;;;;2097169;28;20036;-73
2021/12/09 01:20:44;;;;;;;64.57;32.55;;;2.20;99.90;;;;;;2096226;28;20028;-72
2021/12/09 01:21:44;;;;;;;65.82;33.20;;;2.10;99.90;;;;;;2096238;28;20056;-73
2021/12/09 01:22:46;;;;;;;67.25;34.53;;;2.10;99.90;;;;;;2088107;28;20091;-72
2021/12/09 01:23:47;;;;;;;67.50;33.65;;;2.10;99.90;;;;;;2088192;28;20033;-72
2021/12/09 01:24:47;;;;;;;66.00;33.55;;;2.10;99.90;;;;;;2096381;28;20193;-72
2021/12/09 01:25:50;;;;;;;65.05;33.92;;;2.10;99.90;;;;;;2097103;28;20032;-72
2021/12/09 01:26:51;;;;;;;67.93;33.85;;;2.10;99.90;;;;;;2097070;28;20021;-72
2021/12/09 01:27:55;;;;;;;65.72;34.22;;;2.10;99.90;;;;;;2096450;28;20623;-72
2021/12/09 01:29:01;;;;;;;66.15;33.58;;;2.10;99.90;;;;;;2096047;28;20039;-72
2021/12/09 01:30:09;;;;;;;67.60;33.20;;;2.00;99.90;;;;;;2097185;28;20082;-71
2021/12/09 01:31:10;;;;;;;69.75;35.05;;;2.00;99.90;;;;;;2096378;28;20077;-71
2021/12/09 01:32:13;;;;;;;65.85;33.58;;;2.00;99.90;;;;;;2096693;28;20070;-72
2021/12/09 01:33:13;;;;;;;66.53;34.00;;;1.90;99.90;;;;;;2096763;28;20031;-72
2021/12/09 01:34:16;;;;;;;65.88;33.38;;;1.90;99.90;;;;;;2096036;28;20456;-72
2021/12/09 01:35:19;;;;;;;67.10;34.08;;;1.90;99.90;;;;;;2096361;28;20442;-71
2021/12/09 01:36:20;;;;;;;69.90;34.13;;;1.90;99.90;;;;;;2095620;28;20448;-71
2021/12/09 01:37:21;;;;;;;69.65;34.80;;;1.90;99.90;;;;;;2087993;28;20128;-71
2021/12/09 01:38:24;;;;;;;72.57;35.90;;;1.90;99.90;;;;;;2096136;28;20504;-72
2021/12/09 01:39:28;;;;;;;72.88;36.22;;;1.90;99.90;;;;;;2088680;28;20119;-72
2021/12/09 01:40:29;;;;;;;74.68;35.78;;;1.90;99.90;;;;;;2087868;28;20076;-72
2021/12/09 01:41:30;;;;;;;78.03;36.35;;;1.90;99.90;;;;;;2088719;28;20025;-72
2021/12/09 01:42:31;;;;;;;72.55;36.03;;;1.90;99.90;;;;;;2090050;28;20029;-72
2021/12/09 01:43:31;;;;;;;72.28;35.20;;;1.90;99.90;;;;;;2090316;28;20040;-72
2021/12/09 01:44:32;;;;;;;68.88;33.90;;;1.90;99.90;;;;;;2089642;28;20048;-71
2021/12/09 01:45:33;;;;;;;71.38;34.53;;;1.90;99.90;;;;;;2089377;28;20095;-72
2021/12/09 01:46:34;;;;;;;70.25;35.50;;;1.90;99.90;;;;;;2080860;28;20021;-71
2021/12/09 01:47:34;;;;;;;72.32;34.63;;;1.90;99.90;;;;;;2089582;28;20526;-73
2021/12/09 01:48:36;;;;;;;72.20;35.85;;;1.90;99.90;;;;;;2089231;28;20094;-71
2021/12/09 01:49:37;;;;;;;71.95;34.95;;;1.90;99.90;;;;;;2087917;28;20028;-71
2021/12/09 01:50:38;;;;;;;71.70;34.35;;;1.90;99.90;;;;;;2087448;28;20116;-71
2021/12/09 01:51:40;;;;;;;70.90;34.85;;;1.90;99.90;;;;;;2087687;28;20062;-72
2021/12/09 01:52:42;;;;;;;69.95;34.70;;;1.90;99.90;;;;;;2087991;28;20477;-71
2021/12/09 01:53:44;;;;;;;71.97;35.13;;;1.90;99.90;;;;;;2088454;28;20390;-72
2021/12/09 01:54:45;;;;;;;71.53;34.35;;;1.90;99.90;;;;;;2088557;28;20406;-72
2021/12/09 01:55:45;;;;;;;73.65;34.95;;;1.90;99.90;;;;;;2087919;28;20029;-71
2021/12/09 01:56:46;;;;;;;71.38;35.25;;;1.90;99.90;;;;;;2088028;28;20399;-71
2021/12/09 01:57:49;;;;;;;68.78;34.35;;;1.90;99.90;;;;;;2088719;28;20112;-71
2021/12/09 01:58:52;;;;;;;70.00;34.20;;;1.90;99.90;;;;;;2088515;28;20596;-72
2021/12/09 01:59:52;;;;;;;69.57;34.95;;;1.90;99.90;;;;;;2088507;28;20510;-71
2021/12/09 02:00:54;;;;;;;67.35;34.47;;;1.90;99.90;;;;;;2087425;28;20053;-72
2021/12/09 02:01:54;;;;;;;71.10;34.97;;;1.90;99.90;;;;;;2087722;28;20662;-72
2021/12/09 02:02:55;;;;;;;71.57;36.17;;;1.90;99.90;;;;;;2087731;28;20025;-72
2021/12/09 02:03:56;;;;;;;70.85;35.55;;;1.90;99.90;;;;;;2087826;28;20037;-71
2021/12/09 02:04:57;;;;;;;70.28;34.42;;;1.80;99.90;;;;;;2088442;28;20068;-71
2021/12/09 02:05:58;;;;;;;70.88;33.83;;;1.80;99.90;;;;;;2088518;28;20065;-72
2021/12/09 02:06:59;;;;;;;70.90;34.53;;;1.80;99.90;;;;;;2087738;28;20074;-71
2021/12/09 02:08:00;;;;;;;68.35;34.90;;;1.80;99.90;;;;;;2088033;28;20524;-71
2021/12/09 02:09:01;;;;;;;74.97;36.17;;;1.80;99.90;;;;;;2088549;28;20098;-71
2021/12/09 02:10:05;;;;;;;75.20;35.63;;;1.90;99.90;;;;;;2088460;28;20028;-71
2021/12/09 02:11:05;;;;;;;68.60;34.63;;;1.90;99.90;;;;;;2087942;28;20405;-72
2021/12/09 02:12:10;;;;;;;74.57;36.17;;;1.80;99.90;;;;;;2087576;28;20130;-71
2021/12/09 02:13:12;;;;;;;78.55;38.50;;;1.80;99.90;;;;;;2079908;28;20029;-71
2021/12/09 02:14:13;;;;;;;79.88;39.00;;;1.80;99.90;;;;;;2087779;28;20397;-72
2021/12/09 02:15:14;;;;;;;74.85;37.40;;;1.90;99.90;;;;;;2087603;28;20029;-71
2021/12/09 02:16:15;;;;;;;83.13;39.47;;;1.90;99.90;;;;;;2087820;28;20053;-72
2021/12/09 02:17:15;;;;;;;84.53;39.30;;;1.90;99.90;;;;;;2087970;28;20100;-72
2021/12/09 02:18:16;;;;;;;78.18;38.88;;;1.90;99.90;;;;;;2088559;28;20028;-72
2021/12/09 02:19:17;;;;;;;82.50;39.60;;;1.90;99.90;;;;;;2087956;28;20021;-72
2021/12/09 02:20:18;;;;;;;84.88;39.83;;;1.90;99.90;;;;;;2087853;28;20056;-72
2021/12/09 02:21:25;;;;;;;85.70;41.13;;;1.90;99.90;;;;;;2087397;28;20059;-72
2021/12/09 02:22:28;;;;;;;85.72;40.33;;;1.90;99.90;;;;;;2088453;28;20025;-72
2021/12/09 02:23:28;;;;;;;81.90;39.42;;;1.90;99.90;;;;;;2088508;28;20039;-72
2021/12/09 02:24:29;;;;;;;78.97;38.58;;;1.90;99.90;;;;;;2087542;28;20029;-72
2021/12/09 02:25:29;;;;;;;78.03;37.72;;;1.80;99.90;;;;;;2088013;28;20040;-72
2021/12/09 02:26:36;;;;;;;77.65;38.58;;;1.80;99.90;;;;;;2087847;28;20029;-73
2021/12/09 02:27:37;;;;;;;84.65;40.95;;;1.80;99.90;;;;;;2087961;28;20049;-72
2021/12/09 02:28:38;;;;;;;78.95;38.28;;;1.70;99.90;;;;;;2079574;28;20037;-71
2021/12/09 02:29:41;;;;;;;79.75;38.95;;;1.70;99.90;;;;;;2079495;28;20030;-72
2021/12/09 02:30:43;;;;;;;82.00;38.97;;;1.70;99.90;;;;;;2087448;28;20033;-71
2021/12/09 02:31:45;;;;;;;79.82;39.15;;;1.70;99.90;;;;;;2087751;28;20032;-72
2021/12/09 02:32:46;;;;;;;85.72;39.92;;;1.70;99.90;;;;;;2080023;28;20116;-72
2021/12/09 02:33:47;;;;;;;83.47;38.90;;;1.70;99.90;;;;;;2079609;28;20734;-72
2021/12/09 02:34:47;;;;;;;81.30;38.60;;;1.70;99.90;;;;;;2087755;28;20168;-72
2021/12/09 02:35:48;;;;;;;84.93;40.05;;;1.80;99.90;;;;;;2088016;28;20028;-72
2021/12/09 02:36:51;;;;;;;81.30;38.92;;;1.80;99.90;;;;;;2087758;28;20036;-72
2021/12/09 02:37:52;;;;;;;84.45;40.72;;;1.80;99.90;;;;;;2079893;28;20021;-72
2021/12/09 02:38:53;;;;;;;86.40;40.55;;;1.80;99.90;;;;;;2087532;28;20112;-73
2021/12/09 02:39:56;;;;;;;83.82;39.65;;;1.80;99.90;;;;;;2087866;28;20032;-73
2021/12/09 02:40:57;;;;;;;79.82;39.42;;;1.80;99.90;;;;;;2087678;28;20025;-73
2021/12/09 02:41:58;;;;;;;82.03;39.00;;;1.80;99.90;;;;;;2087901;28;20548;-73
2021/12/09 02:43:00;;;;;;;80.35;38.13;;;1.80;99.90;;;;;;2088674;28;20059;-73
2021/12/09 02:44:04;;;;;;;76.88;36.95;;;1.80;99.90;;;;;;2088267;28;20496;-71
2021/12/09 02:45:08;;;;;;;78.25;37.58;;;1.80;99.90;;;;;;2088568;28;20494;-72
2021/12/09 02:46:09;;;;;;;77.43;37.28;;;1.80;99.90;;;;;;2088349;28;20035;-71
2021/12/09 02:47:09;;;;;;;79.68;38.60;;;1.80;99.90;;;;;;2087836;28;20033;-71
2021/12/09 02:48:15;;;;;;;82.32;38.92;;;1.80;99.90;;;;;;2087841;28;20025;-71
2021/12/09 02:49:19;;;;;;;81.07;38.88;;;1.80;99.90;;;;;;2087841;28;20017;-73
2021/12/09 02:50:19;;;;;;;88.57;40.70;;;1.80;99.90;;;;;;2079959;28;20465;-73
2021/12/09 02:51:20;;;;;;;79.93;39.20;;;1.80;99.90;;;;;;2087205;28;20087;-73
2021/12/09 02:52:21;;;;;;;79.72;39.50;;;1.80;99.90;;;;;;2079738;28;20038;-72
2021/12/09 02:53:21;;;;;;;80.85;39.45;;;1.70;99.90;;;;;;2081128;28;20168;-72
2021/12/09 02:54:24;;;;;;;80.53;38.63;;;1.70;99.90;;;;;;2089943;28;20075;-73
2021/12/09 02:55:24;;;;;;;81.57;38.70;;;1.70;99.90;;;;;;2090075;28;20047;-71
2021/12/09 02:56:25;;;;;;;78.05;39.58;;;1.70;99.90;;;;;;2089924;28;20474;-71
2021/12/09 02:57:26;;;;;;;79.25;39.03;;;1.70;99.90;;;;;;2089651;28;20064;-72
2021/12/09 02:58:26;;;;;;;86.35;41.00;;;1.70;99.90;;;;;;2089980;28;20029;-72
2021/12/09 02:59:27;;;;;;;85.70;40.63;;;1.70;99.90;;;;;;2089691;28;20144;-71
2021/12/09 03:00:30;;;;;;;83.18;40.75;;;1.60;99.90;;;;;;2088826;28;20044;-72
2021/12/09 03:01:37;;;;;;;79.30;39.05;;;1.60;99.90;;;;;;2089862;28;20053;-72
2021/12/09 03:02:37;;;;;;;87.15;41.10;;;1.60;99.90;;;;;;2090062;28;20021;-73
2021/12/09 03:03:46;;;;;;;87.70;40.88;;;1.60;99.90;;;;;;2089976;28;20086;-73
2021/12/09 03:04:51;;;;;;;83.63;39.17;;;1.70;99.90;;;;;;2089432;28;20035;-73
2021/12/09 03:05:54;;;;;;;79.45;38.40;;;1.70;99.90;;;;;;2089259;28;20029;-73
2021/12/09 03:06:55;;;;;;;81.03;38.08;;;1.70;99.90;;;;;;2081196;28;20049;-73
2021/12/09 03:07:57;;;;;;;83.00;40.58;;;1.70;99.90;;;;;;2089405;28;20480;-73
2021/12/09 03:09:02;;;;;;;79.25;39.10;;;1.70;99.90;;;;;;2089197;28;20037;-73
2021/12/09 03:10:10;;;;;;;83.53;38.63;;;1.80;99.90;;;;;;2081510;28;20521;-73
2021/12/09 03:11:14;;;;;;;82.15;38.92;;;1.70;99.90;;;;;;2073259;28;20030;-73
2021/12/09 03:12:21;;;;;;;81.72;40.08;;;1.80;99.90;;;;;;2081150;28;20033;-73
2021/12/09 03:13:22;;;;;;;79.10;37.97;;;1.70;99.90;;;;;;2089216;28;20037;-73
2021/12/09 03:14:24;;;;;;;76.97;37.40;;;1.80;99.90;;;;;;2080990;28;20400;-72
2021/12/09 03:15:25;;;;;;;79.22;39.47;;;1.70;99.90;;;;;;2089451;28;20029;-71
2021/12/09 03:16:25;;;;;;;77.25;37.67;;;1.70;99.90;;;;;;2090122;28;20038;-72
2021/12/09 03:17:27;;;;;;;79.70;38.47;;;1.70;99.90;;;;;;2090000;28;20111;-72
2021/12/09 03:18:28;;;;;;;78.70;38.13;;;1.70;99.90;;;;;;2091727;28;20029;-72
2021/12/09 03:19:28;;;;;;;73.53;36.67;;;1.70;99.90;;;;;;2092465;28;20048;-72
2021/12/09 03:20:29;;;;;;;81.63;38.38;;;1.70;99.90;;;;;;2084357;28;20615;-72
2021/12/09 03:21:42;;;;;;;89.18;40.65;;;1.70;99.90;;;;;;2082661;28;20025;-72
2021/12/09 03:22:44;;;;;;;81.57;38.60;;;1.70;99.90;;;;;;2090835;28;20402;-72
2021/12/09 03:23:44;;;;;;;74.20;36.92;;;1.80;99.90;;;;;;2089805;28;20056;-70
2021/12/09 03:24:46;;;;;;;75.75;37.20;;;1.70;99.90;;;;;;2089940;28;20044;-71
2021/12/09 03:25:47;;;;;;;76.63;37.58;;;1.80;99.90;;;;;;2089496;28;20033;-71
2021/12/09 03:26:57;;;;;;;75.82;37.42;;;1.70;99.90;;;;;;2089728;28;20029;-72
2021/12/09 03:27:57;;;;;;;75.07;35.78;;;1.80;99.90;;;;;;2090303;28;20047;-71
2021/12/09 03:29:01;;;;;;;72.57;35.13;;;1.80;99.90;;;;;;2090383;28;20491;-72
2021/12/09 03:30:05;;;;;;;72.32;35.58;;;1.80;99.90;;;;;;2090442;28;20037;-72
2021/12/09 03:31:06;;;;;;;76.18;37.67;;;1.80;99.90;;;;;;2090445;28;20096;-72
2021/12/09 03:32:10;;;;;;;76.47;36.83;;;1.80;99.90;;;;;;2091362;28;20025;-72
2021/12/09 03:33:11;;;;;;;72.85;35.83;;;1.80;99.90;;;;;;2089883;28;20072;-72
2021/12/09 03:34:14;;;;;;;77.75;36.92;;;1.80;99.90;;;;;;2091591;28;20024;-71
2021/12/09 03:35:15;;;;;;;74.15;36.90;;;1.80;99.90;;;;;;2092907;28;20118;-71
2021/12/09 03:36:16;;;;;;;74.38;36.78;;;1.80;99.90;;;;;;2089383;28;20029;-73
2021/12/09 03:37:22;;;;;;;76.45;37.33;;;1.80;99.90;;;;;;2089451;28;20478;-72
2021/12/09 03:38:24;;;;;;;78.85;37.70;;;1.80;99.90;;;;;;2089821;28;20112;-72
2021/12/09 03:39:29;;;;;;;80.20;38.95;;;1.80;99.90;;;;;;2089520;28;20320;-72
2021/12/09 03:40:29;;;;;;;80.05;38.10;;;1.80;99.90;;;;;;2088833;28;20087;-73
2021/12/09 03:41:30;;;;;;;77.30;38.22;;;1.70;99.90;;;;;;2089110;28;20094;-72
2021/12/09 03:42:32;;;;;;;75.15;37.25;;;1.80;99.90;;;;;;2089838;28;20140;-72
2021/12/09 03:43:33;;;;;;;75.68;37.30;;;1.70;99.90;;;;;;2089949;28;20017;-71
2021/12/09 03:44:34;;;;;;;77.38;37.20;;;1.80;99.90;;;;;;2089743;28;20052;-72
2021/12/09 03:45:35;;;;;;;73.22;36.55;;;1.80;99.90;;;;;;2089773;28;20379;-72
2021/12/09 03:46:36;;;;;;;78.40;37.97;;;1.80;99.90;;;;;;2089371;28;20099;-71
2021/12/09 03:47:38;;;;;;;76.22;37.40;;;1.80;99.90;;;;;;2080959;28;20100;-71
2021/12/09 03:48:39;;;;;;;75.18;37.63;;;1.80;99.90;;;;;;2088970;28;20100;-71
2021/12/09 03:49:42;;;;;;;77.40;37.88;;;1.80;99.90;;;;;;2089610;28;20033;-71
2021/12/09 03:50:44;;;;;;;78.20;37.65;;;1.80;99.90;;;;;;2089071;28;20055;-71
2021/12/09 03:51:45;;;;;;;71.72;35.47;;;1.80;99.90;;;;;;2088427;28;20040;-71
2021/12/09 03:52:48;;;;;;;76.32;37.22;;;1.80;99.90;;;;;;2089009;28;20033;-71
2021/12/09 03:53:48;;;;;;;79.28;38.25;;;1.80;99.90;;;;;;2089329;28;20029;-71
2021/12/09 03:54:50;;;;;;;81.85;40.22;;;1.80;99.90;;;;;;2089459;28;20048;-72
2021/12/09 03:55:51;;;;;;;79.97;39.20;;;1.80;99.90;;;;;;2089372;28;20033;-72
2021/12/09 03:56:53;;;;;;;78.57;39.05;;;1.80;99.90;;;;;;2089448;28;20029;-71
2021/12/09 03:57:54;;;;;;;75.03;38.08;;;1.80;99.90;;;;;;2088818;28;20509;-71
2021/12/09 03:58:55;;;;;;;78.00;37.80;;;1.80;99.90;;;;;;2088921;28;20033;-71
2021/12/09 03:59:56;;;;;;;74.30;37.03;;;1.80;99.90;;;;;;2088838;28;20079;-73
2021/12/09 04:00:56;;;;;;;76.15;37.47;;;1.80;99.90;;;;;;2088362;28;20029;-72
2021/12/09 04:01:57;;;;;;;72.13;36.72;;;1.80;99.90;;;;;;2080067;28;20039;-72
2021/12/09 04:02:59;;;;;;;74.07;36.30;;;1.80;99.90;;;;;;2088964;28;20028;-73
2021/12/09 04:03:59;;;;;;;77.43;37.63;;;1.80;99.90;;;;;;2088784;28;20036;-73
2021/12/09 04:05:00;;;;;;;75.30;36.95;;;1.80;99.90;;;;;;2088793;28;20036;-71
2021/12/09 04:06:01;;;;;;;74.13;37.08;;;1.80;99.90;;;;;;2088886;28;20112;-71
2021/12/09 04:07:02;;;;;;;75.43;36.63;;;1.80;99.90;;;;;;2089580;28;20021;-71
2021/12/09 04:08:04;;;;;;;76.72;38.40;;;1.80;99.90;;;;;;2088739;28;20029;-71
2021/12/09 04:09:09;;;;;;;75.10;37.33;;;1.80;99.90;;;;;;2088859;28;20040;-71
2021/12/09 04:10:09;;;;;;;74.03;36.50;;;1.80;99.90;;;;;;2088850;28;20164;-71
2021/12/09 04:11:10;;;;;;;78.57;37.45;;;1.80;99.90;;;;;;2088110;28;20417;-71
2021/12/09 04:12:14;;;;;;;72.68;36.38;;;1.80;99.90;;;;;;2089313;28;20027;-71
2021/12/09 04:13:14;;;;;;;73.88;37.60;;;1.80;99.90;;;;;;2089561;28;20025;-71
2021/12/09 04:14:15;;;;;;;79.03;37.83;;;1.80;99.90;;;;;;2089423;28;20064;-71
2021/12/09 04:15:16;;;;;;;78.35;38.13;;;1.80;99.90;;;;;;2089463;28;20025;-71
2021/12/09 04:16:16;;;;;;;74.80;37.17;;;1.80;99.90;;;;;;2089493;28;20382;-72
2021/12/09 04:17:17;;;;;;;76.22;36.85;;;1.80;99.90;;;;;;2089448;28;20067;-73
2021/12/09 04:18:18;;;;;;;74.43;37.65;;;1.80;99.90;;;;;;2088801;28;20025;-71
2021/12/09 04:19:19;;;;;;;78.78;39.78;;;1.80;99.90;;;;;;2088689;28;20055;-71
2021/12/09 04:20:21;;;;;;;80.90;38.38;;;1.80;99.90;;;;;;2089443;28;20021;-73
2021/12/09 04:21:21;;;;;;;76.38;38.63;;;1.80;99.90;;;;;;2088854;28;20025;-71
2021/12/09 04:22:22;;;;;;;76.93;38.35;;;1.80;99.90;;;;;;2088988;28;20025;-72
2021/12/09 04:23:25;;;;;;;75.93;37.55;;;1.80;99.90;;;;;;2088678;28;20556;-71
2021/12/09 04:24:26;;;;;;;72.90;37.10;;;1.80;99.90;;;;;;2088516;28;20062;-71
2021/12/09 04:25:26;;;;;;;74.18;37.03;;;1.80;99.90;;;;;;2089395;28;20569;-72
2021/12/09 04:26:27;;;;;;;78.65;39.20;;;1.80;99.90;;;;;;2089368;28;20055;-72
2021/12/09 04:27:28;;;;;;;74.30;36.90;;;1.80;99.90;;;;;;2089364;28;20045;-72
2021/12/09 04:28:29;;;;;;;75.05;37.15;;;1.80;99.90;;;;;;2088659;28;20482;-72
2021/12/09 04:29:30;;;;;;;76.05;37.10;;;1.80;99.90;;;;;;2088661;28;20029;-74
2021/12/09 04:30:32;;;;;;;75.55;37.05;;;1.90;99.90;;;;;;2088783;28;20036;-71
2021/12/09 04:31:33;;;;;;;74.65;36.70;;;1.90;99.90;;;;;;2088863;28;20032;-71
2021/12/09 04:32:33;;;;;;;73.75;36.60;;;1.90;99.90;;;;;;2089241;28;20025;-71
2021/12/09 04:33:34;;;;;;;77.50;38.08;;;1.90;99.90;;;;;;2089087;28;20098;-71
2021/12/09 04:34:35;;;;;;;73.95;36.88;;;1.90;99.90;;;;;;2089145;28;20055;-73
2021/12/09 04:35:36;;;;;;;74.22;36.25;;;1.90;99.90;;;;;;2088984;28;20394;-71
2021/12/09 04:36:38;;;;;;;77.57;38.42;;;1.90;99.90;;;;;;2088619;28;20025;-71
2021/12/09 04:37:38;;;;;;;75.18;37.10;;;1.90;99.90;;;;;;2080422;28;20040;-71
2021/12/09 04:38:39;;;;;;;76.97;36.70;;;1.90;99.90;;;;;;2088300;28;20031;-71
2021/12/09 04:39:41;;;;;;;72.93;36.45;;;1.90;99.90;;;;;;2089234;28;20028;-70
2021/12/09 04:40:42;;;;;;;73.25;37.13;;;1.90;99.90;;;;;;2087918;28;20041;-72
2021/12/09 04:41:43;;;;;;;75.03;37.33;;;1.90;99.90;;;;;;2088229;28;20025;-72
2021/12/09 04:42:44;;;;;;;75.70;37.80;;;1.90;99.90;;;;;;2089273;28;20033;-71
2021/12/09 04:43:45;;;;;;;75.72;37.75;;;1.80;99.90;;;;;;2088436;28;20033;-71
2021/12/09 04:44:46;;;;;;;77.00;37.92;;;1.90;99.90;;;;;;2080289;28;20029;-71
2021/12/09 04:45:47;;;;;;;80.47;38.88;;;1.90;99.90;;;;;;2080227;28;20034;-71
2021/12/09 04:46:48;;;;;;;78.20;39.95;;;1.90;99.90;;;;;;2088572;28;20553;-70
2021/12/09 04:47:49;;;;;;;80.82;38.83;;;1.90;99.90;;;;;;2088538;28;20063;-72
2021/12/09 04:48:50;;;;;;;73.43;37.88;;;1.80;99.90;;;;;;2088388;28;20080;-71
2021/12/09 04:49:50;;;;;;;78.30;39.33;;;1.80;99.90;;;;;;2088489;28;20036;-71
2021/12/09 04:50:51;;;;;;;75.93;37.03;;;1.80;99.90;;;;;;2088149;28;20037;-71
2021/12/09 04:51:52;;;;;;;72.85;37.85;;;1.80;99.90;;;;;;2088310;28;20057;-71
2021/12/09 04:52:53;;;;;;;78.00;38.17;;;1.80;99.90;;;;;;2089174;28;20037;-71
2021/12/09 04:53:53;;;;;;;82.05;39.92;;;1.80;99.90;;;;;;2088522;28;20044;-71
2021/12/09 04:54:54;;;;;;;80.07;39.55;;;1.80;99.90;;;;;;2088468;28;20125;-71
2021/12/09 04:55:54;;;;;;;77.78;39.10;;;1.80;99.90;;;;;;2088511;28;20056;-71
2021/12/09 04:56:55;;;;;;;78.00;39.05;;;1.90;99.90;;;;;;2088440;28;20116;-71
2021/12/09 04:57:56;;;;;;;78.72;38.65;;;1.80;99.90;;;;;;2088622;28;20029;-70
2021/12/09 04:58:56;;;;;;;79.15;39.10;;;1.80;99.90;;;;;;2089343;28;20057;-72
2021/12/09 04:59:57;;;;;;;74.60;38.45;;;1.80;99.90;;;;;;2088654;28;20553;-71
2021/12/09 05:01:01;;;;;;;76.35;37.75;;;1.80;99.90;;;;;;2080021;28;20034;-72
2021/12/09 05:02:02;;;;;;;76.10;38.28;;;1.80;99.90;;;;;;2088430;28;20106;-72
2021/12/09 05:03:06;;;;;;;75.93;38.55;;;1.80;99.90;;;;;;2088931;28;20147;-71
2021/12/09 05:04:07;;;;;;;74.05;38.15;;;1.80;99.90;;;;;;2088839;28;20021;-72
2021/12/09 05:05:09;;;;;;;76.55;38.30;;;1.90;99.90;;;;;;2089036;28;20036;-72
2021/12/09 05:06:10;;;;;;;69.57;36.63;;;1.80;99.90;;;;;;2088971;28;20021;-72
2021/12/09 05:07:11;;;;;;;71.18;35.85;;;1.90;99.90;;;;;;2089020;28;20082;-72
2021/12/09 05:08:19;;;;;;;75.75;36.78;;;1.90;99.90;;;;;;2088913;28;20071;-72
2021/12/09 05:09:20;;;;;;;75.22;36.80;;;1.90;99.90;;;;;;2088347;28;20510;-72
2021/12/09 05:10:21;;;;;;;79.80;38.22;;;1.90;99.90;;;;;;2079983;28;20084;-72
2021/12/09 05:11:48;;;;;;;73.10;36.83;;;1.90;99.90;;;;;;2087759;28;20107;-72
2021/12/09 05:12:48;;;;;;;74.10;36.38;;;1.90;99.90;;;;;;2088962;28;20037;-73
2021/12/09 05:13:49;;;;;;;73.95;36.35;;;1.90;99.90;;;;;;2088674;28;20082;-72
2021/12/09 05:14:50;;;;;;;71.88;36.17;;;1.80;99.90;;;;;;2088885;28;20056;-72
2021/12/09 05:15:51;;;;;;;71.47;35.67;;;1.90;99.90;;;;;;2079294;28;20031;-72
2021/12/09 05:16:53;;;;;;;72.30;36.13;;;1.90;99.90;;;;;;2080012;28;20391;-73
2021/12/09 05:17:54;;;;;;;70.40;35.58;;;1.80;99.90;;;;;;2088328;28;20033;-72
2021/12/09 05:19:01;;;;;;;70.88;36.10;;;1.80;99.90;;;;;;2088411;28;20025;-71